Hauptseite
METAR-TAF:

METAR-TAF

Flughäfen :

Siegen, Deutschland

Siegerlandflughafen

Breite: 50-42-28N, Länge: 008-04-59E, Höhe: 602 m

Beobachtung

Neuester Wetterbericht von vor 19 Minuten, um 11:20 UTC
Wind 12 kt aus Ost/Nordost, Böen bis zu 22 kt
Temperatur 9°C
Luftfeuchtigkeit 46%
Luftdruck 1027 hPa
Sichtweite 10 km oder mehr
keine Wolken unter 1500 m und keine Kumulonimbus oder Gewitterwolken

METAR: EDGS 251120Z 06012G22KT CAVOK 09/M02 Q1027

Zeit: 12:39 (11:39 UTC)

Prognose

Neuester Wetterbericht von vor 39 Minuten, um 11:00 UTC
Gültige Prognose vom 25 um 12 UTC bis 25 um 21 UTC
Wind 13 kt aus Ost/Nordost
Sichtweite 10 km oder mehr
keine Wolken unter 1500 m und keine Kumulonimbus oder Gewitterwolken
Übergehend zu
vom 25 um 12 UTC bis 25 um 14 UTC
Wind 15 kt aus Ost/Nordost, Böen bis zu 25 kt

TAF: EDGS 251100Z 2512/2521 06013KT CAVOK BECMG 2512/2514 07015G25KT

Wetterbeobachtungen und Prognosen von mehr als 4000 Flughäfen (METAR und TAF Bericht).

Die verfügbaren Stationen werden durch gelbe und rote Markierungen auf der Karte dargestellt.

Führen Sie die Maus auf sie, um den Namen der Station zu sehen.

Darauf klicken, um die Beobachtung von Wetterbeobachtungen und Prognosen zu sehen.

Um die Karte zu ändern : klicken Sie auf den grünen Tasten mit einem schwarzen Kreuz Zum Vergrößern, auf den grünen Button mit einem Gedankenstrich zu verkleinern, oder auf die grünen Pfeile für benachbarte Karten.


METAR-TAF: